Etusivu
METAR-TAF:

METAR-TAF

Lentoasemat :

Illizi, Algeria

Leveyspiiri: 26-30N, Pituuspiiri: 008-25E, korkeus merenpinnasta: 558 m

Tämänhetkinen sää

Tämä raportti tehtiin 26 minuuttia sitten, kello 07.00 UTC
Tuuli 5 kn idästä/kaakosta
Lämpötila 28°C
Kosteus 16%
Ilmanpaine 1015 hPa
Näkyvyys 10 km tai enemmän
ei pilviä alle 1500 m:ssä eikä cumulonimbus-pilviä

METAR: DAAP 190700Z 11005KT CAVOK 28/00 Q1015

Aika: 08:26 (07:26 UTC)

Sääennuste

Tämä raportti tehtiin 2 tuntia ja 26 minuuttia sitten, kello 05.00 UTC
Ennuste voimassa 19. päivästä klo 06 UTC - 19. päivään klo 15 UTC
Tuuli 10 kn idästä/kaakosta
Näkyvyys 10 km tai enemmän
ei pilviä alle 1500 m:ssä eikä cumulonimbus-pilviä

TAF: DAAP 190500Z 1906/1915 12010KT CAVOK

Säähavainnot ja -ennusteet yli 4000 lentoasemalta (METAR- ja TAF-raportit).

Käytössä olevat sääasemat on merkitty karttaan keltaisilla ja punaisilla pisteillä.

Aseta hiiri pisteen päälle nähdäksesi sääaseman nimen.

Klikkaa sitten nähdäksesi säähavainnot ja -ennusteet.

Kartan vaihtaminen: klikkaa mustalla rastilla varustettuja vihreitä pisteitä, niin voit zoomata sisään; viivalla varustettua vihreää pistettä, niin voit zoomata ulos tai vihreitä nuolia, niin pääset viereisille kartoille.


METAR-TAF: